Time;durP1;ratioP1;P1;durP2;ratioP2;P2;SDS_P1;SDS_P2;PMS_P1;PMS_P2;Temp;Humidity;BMP_temperature;BMP_pressure;BME280_temperature;BME280_humidity;BME280_pressure;Samples;Min_cycle;Max_cycle;Signal;HPM_P1;HPM_P2
2021/05/09 00:01:40;;;;;;;8.48;6.90;;;;;;;11.55;45.70;99865.72;10545254;28;20093;-71
2021/05/09 00:06:41;;;;;;;5.03;4.60;;;;;;;11.32;46.50;99858.66;10544888;28;20078;-71
2021/05/09 00:11:43;;;;;;;3.55;3.25;;;;;;;11.57;45.28;99860.38;10544727;28;20051;-71
2021/05/09 00:16:44;;;;;;;4.65;3.72;;;;;;;11.48;46.07;99858.94;10544529;28;20079;-70
2021/05/09 00:21:45;;;;;;;3.38;3.00;;;;;;;11.41;46.89;99860.09;10544920;28;20051;-70
2021/05/09 00:26:46;;;;;;;3.90;3.13;;;;;;;11.14;47.46;99851.47;10544845;28;20081;-72
2021/05/09 00:31:48;;;;;;;3.42;3.05;;;;;;;10.94;47.83;99856.59;10543545;28;20047;-70
2021/05/09 00:36:49;;;;;;;3.95;3.55;;;;;;;11.27;46.85;99850.09;10543277;28;20071;-72
2021/05/09 00:42:06;;;;;;;4.13;3.72;;;;;;;11.31;46.73;99849.06;10544594;28;20074;-70
2021/05/09 00:47:09;;;;;;;3.17;2.83;;;;;;;10.93;47.45;99846.97;10542474;28;20036;-72
2021/05/09 00:52:12;;;;;;;3.15;2.70;;;;;;;10.87;47.64;99848.06;10543162;28;20081;-71
2021/05/09 00:57:15;;;;;;;3.85;3.05;;;;;;;10.76;47.96;99842.34;10542969;28;20044;-71
2021/05/09 01:02:17;;;;;;;3.72;2.65;;;;;;;10.65;48.07;99837.44;10542316;28;20389;-71
2021/05/09 01:07:20;;;;;;;3.05;2.67;;;;;;;10.54;48.36;99832.59;10542674;28;20044;-71
2021/05/09 01:12:21;;;;;;;2.45;2.25;;;;;;;10.47;48.56;99825.81;10541941;28;20040;-70
2021/05/09 01:17:24;;;;;;;3.15;2.35;;;;;;;10.42;48.66;99829.50;10542482;28;20043;-71
2021/05/09 01:22:25;;;;;;;3.15;2.55;;;;;;;10.39;48.79;99833.09;10542467;28;20119;-71
2021/05/09 01:27:29;;;;;;;3.92;2.63;;;;;;;10.43;49.10;99828.59;10523619;28;20493;-71
2021/05/09 01:32:30;;;;;;;4.65;2.50;;;;;;;10.38;48.81;99828.75;10541022;28;20100;-71
2021/05/09 01:37:33;;;;;;;2.53;2.33;;;;;;;10.86;47.88;99820.91;10541939;28;20051;-71
2021/05/09 01:42:34;;;;;;;3.20;2.30;;;;;;;10.99;47.53;99815.22;10542101;28;20134;-70
2021/05/09 01:47:37;;;;;;;2.55;2.35;;;;;;;10.95;47.86;99813.59;10523630;28;20079;-71
2021/05/09 01:52:39;;;;;;;2.35;2.15;;;;;;;10.73;48.50;99806.50;10541421;28;20405;-71
2021/05/09 01:57:40;;;;;;;2.80;2.20;;;;;;;10.51;48.68;99809.03;10526117;28;20040;-71
2021/05/09 02:02:48;;;;;;;2.45;2.15;;;;;;;10.44;48.84;99807.50;10533442;28;20032;-71
2021/05/09 02:07:56;;;;;;;2.00;1.80;;;;;;;10.63;49.16;99805.13;10531594;28;20451;-71
2021/05/09 02:12:59;;;;;;;2.85;2.20;;;;;;;10.41;50.17;99809.41;10530508;28;20040;-71
2021/05/09 02:18:08;;;;;;;2.35;2.15;;;;;;;10.26;51.08;99809.00;10530625;28;20044;-71
2021/05/09 02:23:15;;;;;;;3.35;2.55;;;;;;;10.38;50.81;99802.47;10548055;28;20036;-71
2021/05/09 02:28:18;;;;;;;2.55;2.30;;;;;;;10.47;49.71;99803.94;10529914;28;20098;-71
2021/05/09 02:33:21;;;;;;;4.05;2.33;;;;;;;10.77;47.93;99799.38;10529970;28;20134;-71
2021/05/09 02:38:23;;;;;;;2.90;2.25;;;;;;;10.75;47.58;99786.25;10530354;28;20052;-71
2021/05/09 02:43:24;;;;;;;2.90;1.98;;;;;;;10.84;47.42;99788.53;10548210;28;20040;-71
2021/05/09 02:48:26;;;;;;;2.45;1.85;;;;;;;10.78;47.89;99780.88;10547557;28;20036;-71
2021/05/09 02:53:27;;;;;;;2.33;2.13;;;;;;;10.61;48.44;99792.00;10547503;28;20040;-72
2021/05/09 02:58:29;;;;;;;2.90;2.15;;;;;;;10.71;47.32;99789.91;10512430;28;20040;-71
2021/05/09 03:03:30;;;;;;;3.72;2.63;;;;;;;10.50;48.34;99793.31;10546860;28;20044;-71
2021/05/09 03:08:34;;;;;;;4.05;1.95;;;;;;;10.60;47.59;99794.69;10546092;28;20327;-71
2021/05/09 03:13:36;;;;;;;3.10;1.80;;;;;;;10.48;48.04;99789.88;10546948;28;20028;-71
2021/05/09 03:18:38;;;;;;;2.53;1.90;;;;;;;10.47;48.54;99796.91;10529166;28;20048;-71
2021/05/09 03:23:39;;;;;;;2.45;2.10;;;;;;;10.33;48.52;99799.16;10546624;28;20359;-71
2021/05/09 03:28:40;;;;;;;2.60;2.35;;;;;;;10.20;48.66;99800.47;10545916;28;20040;-70
2021/05/09 03:33:41;;;;;;;3.22;2.50;;;;;;;10.22;48.79;99803.88;10546392;28;20040;-70
2021/05/09 03:38:43;;;;;;;3.08;2.40;;;;;;;10.02;49.44;99810.66;10546084;28;20044;-71
2021/05/09 03:43:45;;;;;;;3.80;2.20;;;;;;;10.07;48.70;99814.00;10527145;28;20047;-71
2021/05/09 03:48:46;;;;;;;2.88;2.20;;;;;;;9.96;49.20;99815.25;10528101;28;20035;-72
2021/05/09 03:53:48;;;;;;;3.13;2.15;;;;;;;10.08;48.59;99810.44;10526754;28;20042;-71
2021/05/09 03:58:49;;;;;;;2.95;2.03;;;;;;;9.98;49.34;99813.44;10526888;28;20062;-71
2021/05/09 04:03:50;;;;;;;4.35;2.38;;;;;;;9.94;49.27;99815.31;10544699;28;20047;-71
2021/05/09 04:08:51;;;;;;;2.38;2.17;;;;;;;10.00;49.41;99816.88;10544380;28;20127;-71
2021/05/09 04:13:52;;;;;;;4.85;2.42;;;;;;;9.94;49.46;99822.31;10545323;28;20466;-71
2021/05/09 04:18:54;;;;;;;2.88;2.58;;;;;;;10.15;48.55;99812.91;10544882;28;20044;-71
2021/05/09 04:23:55;;;;;;;3.25;2.15;;;;;;;10.19;48.89;99811.88;10544394;28;20040;-71
2021/05/09 04:28:56;;;;;;;3.03;2.30;;;;;;;10.24;48.68;99805.59;10544888;28;20044;-71
2021/05/09 04:33:57;;;;;;;3.28;2.35;;;;;;;10.28;48.85;99803.72;10526373;28;20047;-71
2021/05/09 04:38:59;;;;;;;2.90;2.58;;;;;;;10.21;49.08;99794.28;10526016;28;20114;-71
2021/05/09 04:44:00;;;;;;;2.72;2.40;;;;;;;10.38;49.64;99797.22;10525976;28;20040;-71
2021/05/09 04:49:01;;;;;;;3.13;2.45;;;;;;;10.33;48.59;99799.16;10543374;28;20070;-71
2021/05/09 04:54:03;;;;;;;4.43;2.72;;;;;;;10.51;48.46;99802.91;10543058;28;20044;-71
2021/05/09 04:59:04;;;;;;;4.78;2.60;;;;;;;10.61;48.05;99807.78;10542799;28;20097;-71
2021/05/09 05:04:05;;;;;;;4.28;2.60;;;;;;;10.22;49.14;99806.50;10542292;28;20036;-71
2021/05/09 05:09:07;;;;;;;3.22;2.72;;;;;;;10.47;49.68;99806.56;10543034;28;20075;-71
2021/05/09 05:14:08;;;;;;;3.60;2.95;;;;;;;10.42;49.59;99800.63;10523107;28;20036;-71
2021/05/09 05:19:09;;;;;;;3.30;2.42;;;;;;;10.75;48.39;99804.66;10521699;28;20085;-71
2021/05/09 05:24:10;;;;;;;2.60;2.33;;;;;;;11.06;48.38;99812.28;10523766;28;20039;-71
2021/05/09 05:29:12;;;;;;;3.35;2.60;;;;;;;11.28;47.20;99806.22;10541484;28;20044;-71
2021/05/09 05:34:13;;;;;;;3.85;2.28;;;;;;;11.37;47.20;99805.84;10547491;28;20043;-71
2021/05/09 05:39:14;;;;;;;2.60;2.40;;;;;;;11.49;47.63;99804.53;10532074;28;20050;-71
2021/05/09 05:44:16;;;;;;;3.55;2.70;;;;;;;11.86;46.43;99798.66;10532312;28;20048;-71
2021/05/09 05:49:23;;;;;;;3.40;2.60;;;;;;;11.81;47.42;99801.47;10550296;28;20052;-72
2021/05/09 05:54:25;;;;;;;3.35;2.40;;;;;;;12.38;46.25;99804.41;10551083;28;20048;-72
2021/05/09 05:59:26;;;;;;;2.95;2.53;;;;;;;12.83;45.35;99806.81;10534212;28;20478;-73
2021/05/09 06:04:27;;;;;;;3.97;2.63;;;;;;;13.17;44.46;99813.22;10531062;28;20048;-72
2021/05/09 06:09:29;;;;;;;2.65;2.45;;;;;;;13.86;43.26;99812.63;10548870;28;20071;-73
2021/05/09 06:14:30;;;;;;;2.50;2.30;;;;;;;14.18;42.61;99804.91;10530046;28;20040;-72
2021/05/09 06:19:33;;;;;;;2.88;2.10;;;;;;;14.64;41.92;99798.97;10547737;28;20059;-73
2021/05/09 06:24:34;;;;;;;2.70;2.38;;;;;;;15.01;41.82;99786.47;10547303;28;20114;-72
2021/05/09 06:29:35;;;;;;;2.90;2.60;;;;;;;15.04;42.03;99788.91;10547433;28;20055;-73
2021/05/09 06:34:37;;;;;;;2.33;2.13;;;;;;;15.81;41.16;99788.22;10546766;28;20067;-74
2021/05/09 06:39:39;;;;;;;3.55;2.25;;;;;;;16.19;40.16;99781.63;10547501;28;20440;-73
2021/05/09 06:44:48;;;;;;;3.63;2.38;;;;;;;16.85;39.54;99783.84;10528891;28;20048;-74
2021/05/09 06:49:49;;;;;;;2.53;1.65;;;;;;;17.02;39.17;99783.66;10527460;28;20040;-73
2021/05/09 06:54:51;;;;;;;2.97;1.60;;;;;;;17.61;38.56;99775.47;10526896;28;20051;-73
2021/05/09 06:59:52;;;;;;;2.97;1.80;;;;;;;17.89;37.21;99764.78;10545966;28;20036;-73
2021/05/09 07:04:53;;;;;;;2.40;1.80;;;;;;;18.31;37.08;99762.84;10528017;28;20059;-73
2021/05/09 07:09:54;;;;;;;2.40;1.67;;;;;;;18.81;37.06;99755.00;10547479;28;20044;-73
2021/05/09 07:14:56;;;;;;;2.60;1.70;;;;;;;18.82;37.23;99754.91;10546365;28;20044;-74
2021/05/09 07:19:57;;;;;;;2.88;1.80;;;;;;;19.03;36.56;99736.53;10545967;28;20043;-73
2021/05/09 07:24:58;;;;;;;1.95;1.42;;;;;;;19.54;35.52;99731.06;10545931;28;20036;-74
2021/05/09 07:29:59;;;;;;;2.50;1.13;;;;;;;19.74;36.37;99734.94;10545931;28;20044;-73
2021/05/09 07:35:01;;;;;;;1.30;1.20;;;;;;;20.19;35.15;99726.25;10545751;28;20097;-73
2021/05/09 07:40:03;;;;;;;4.40;1.20;;;;;;;19.94;35.54;99730.78;10545753;28;20062;-72
2021/05/09 07:45:05;;;;;;;1.10;0.70;;;;;;;20.17;34.04;99721.03;10545257;28;20036;-73
2021/05/09 07:50:08;;;;;;;1.05;0.40;;;;;;;20.23;33.40;99719.72;10544896;28;20083;-72
2021/05/09 07:55:10;;;;;;;5.18;0.70;;;;;;;20.54;33.02;99711.09;10525314;28;20494;-73
2021/05/09 08:00:15;;;;;;;0.70;0.57;;;;;;;20.98;33.65;99698.66;10544774;28;20528;-73
2021/05/09 08:05:20;;;;;;;1.38;0.47;;;;;;;21.06;31.88;99696.25;10544312;28;20047;-73
2021/05/09 08:10:26;;;;;;;0.40;0.40;;;;;;;21.22;32.67;99689.66;10545896;28;20517;-73
2021/05/09 08:15:27;;;;;;;0.70;0.40;;;;;;;21.20;32.51;99678.22;10527295;28;20036;-73
2021/05/09 08:20:29;;;;;;;0.40;0.40;;;;;;;21.43;32.46;99679.94;10545455;28;20040;-73
2021/05/09 08:25:31;;;;;;;1.58;0.60;;;;;;;21.39;33.27;99673.13;10545342;28;20075;-74
2021/05/09 08:30:32;;;;;;;1.15;0.50;;;;;;;21.81;31.59;99687.41;10525499;28;20054;-73
2021/05/09 08:35:34;;;;;;;1.05;0.60;;;;;;;22.01;31.93;99674.19;10543538;28;20040;-73
2021/05/09 08:40:35;;;;;;;1.27;0.70;;;;;;;22.59;32.81;99669.19;10525191;28;20048;-74
2021/05/09 08:45:37;;;;;;;1.20;0.80;;;;;;;22.70;32.39;99666.41;10543691;28;20397;-73
2021/05/09 08:50:38;;;;;;;0.73;0.50;;;;;;;23.60;29.97;99663.69;10542282;28;20043;-72
2021/05/09 08:55:39;;;;;;;0.90;0.70;;;;;;;23.45;30.31;99653.50;10524005;28;20040;-72
2021/05/09 09:00:44;;;;;;;0.63;0.35;;;;;;;24.29;29.30;99645.66;10541751;28;20093;-71
2021/05/09 09:05:46;;;;;;;2.20;0.40;;;;;;;24.40;30.88;99646.38;10540408;28;20040;-72
2021/05/09 09:10:52;;;;;;;0.77;0.50;;;;;;;24.40;29.32;99640.16;10523327;28;20056;-73
2021/05/09 09:16:04;;;;;;;1.63;0.60;;;;;;;24.53;29.23;99632.63;10541216;28;20036;-73
2021/05/09 09:21:24;;;;;;;2.38;0.65;;;;;;;24.61;28.91;99635.41;10541764;28;20127;-72
2021/05/09 09:26:32;;;;;;;2.78;0.70;;;;;;;24.71;29.37;99631.84;10541793;28;20064;-72
2021/05/09 09:31:38;;;;;;;3.80;0.70;;;;;;;25.23;28.67;99629.41;10523399;28;20044;-72
2021/05/09 09:36:40;;;;;;;;;;;;;;;25.86;27.89;99611.34;10540430;28;20032;-72
2021/05/09 09:41:48;;;;;;;3.03;0.50;;;;;;;26.14;27.45;99606.66;10539681;28;19920;-72
2021/05/09 09:46:52;;;;;;;1.40;0.60;;;;;;;25.21;28.16;99604.53;10540655;28;20090;-71
2021/05/09 09:52:08;;;;;;;2.15;0.85;;;;;;;25.84;27.06;99602.56;10541620;28;20044;-72
2021/05/09 09:57:28;;;;;;;0.90;0.50;;;;;;;25.94;28.68;99593.53;10540550;28;20500;-71
2021/05/09 10:02:30;;;;;;;1.60;0.55;;;;;;;26.38;27.06;99583.53;10541432;28;20036;-72
2021/05/09 10:07:33;;;;;;;0.85;0.50;;;;;;;26.24;26.87;99581.44;10541395;28;20054;-72
2021/05/09 10:12:35;;;;;;;2.60;0.47;;;;;;;26.76;27.93;99559.81;10523878;28;20040;-73
2021/05/09 10:17:37;;;;;;;1.27;0.57;;;;;;;27.04;26.69;99561.19;10525305;28;20402;-73
2021/05/09 10:22:38;;;;;;;2.22;0.70;;;;;;;27.02;25.74;99557.00;10550018;28;20386;-72
2021/05/09 10:27:41;;;;;;;2.38;0.95;;;;;;;26.99;26.62;99557.31;10532240;28;20111;-71
2021/05/09 10:32:44;;;;;;;1.27;0.50;;;;;;;27.03;26.90;99556.81;10549804;28;20477;-72
2021/05/09 10:37:51;;;;;;;1.23;0.52;;;;;;;27.64;25.92;99552.00;10548222;28;20036;-73
2021/05/09 10:43:01;;;;;;;0.77;0.63;;;;;;;27.84;26.66;99558.72;10548100;28;20040;-74
2021/05/09 10:53:33;;;;;;;1.00;0.85;;;;;;;28.02;26.13;99545.03;10546248;28;20044;-73
2021/05/09 10:58:46;;;;;;;2.03;1.00;;;;;;;27.75;27.28;99546.25;10528817;28;20105;-73
2021/05/09 11:03:51;;;;;;;3.33;0.82;;;;;;;27.91;28.67;99542.69;10548374;28;20039;-73
2021/05/09 11:08:59;;;;;;;1.77;0.90;;;;;;;27.43;27.42;99544.41;10530345;28;20467;-73
2021/05/09 11:14:00;;;;;;;1.58;0.90;;;;;;;26.85;27.60;99538.06;10548434;28;20040;-73
2021/05/09 11:19:13;;;;;;;0.65;0.60;;;;;;;27.11;26.76;99537.16;10546876;28;20059;-73
2021/05/09 11:24:20;;;;;;;1.30;0.70;;;;;;;26.90;28.92;99527.63;10545892;28;20133;-72
2021/05/09 11:29:23;;;;;;;1.40;0.80;;;;;;;27.45;27.49;99528.03;10527672;28;20109;-73
2021/05/09 11:34:26;;;;;;;0.75;0.70;;;;;;;27.56;28.07;99533.09;10545911;28;20500;-72
2021/05/09 11:39:30;;;;;;;1.55;0.60;;;;;;;28.25;27.89;99522.69;10546993;28;20044;-74
2021/05/09 11:44:39;;;;;;;2.17;0.80;;;;;;;28.27;27.83;99520.63;10546121;28;20489;-72
2021/05/09 11:49:42;;;;;;;1.52;0.90;;;;;;;27.42;28.90;99523.84;10529064;28;20107;-70
2021/05/09 11:54:53;;;;;;;1.75;1.10;;;;;;;27.28;29.23;99521.81;10510488;28;20143;-70
2021/05/09 12:00:06;;;;;;;1.58;1.08;;;;;;;27.41;28.72;99519.44;10526828;28;20036;-72
2021/05/09 12:05:10;;;;;;;2.00;0.77;;;;;;;26.67;30.09;99511.25;10526989;28;20082;-71
2021/05/09 12:10:14;;;;;;;2.58;0.90;;;;;;;26.85;29.57;99518.34;10545304;28;20047;-71
2021/05/09 12:15:17;;;;;;;1.00;0.80;;;;;;;27.00;30.20;99508.59;10544905;28;20066;-71
2021/05/09 12:20:32;;;;;;;1.42;0.68;;;;;;;26.98;29.63;99505.22;10544831;28;20142;-71
2021/05/09 12:25:42;;;;;;;1.05;0.98;;;;;;;27.34;30.01;99499.53;10524871;28;20413;-70
2021/05/09 12:30:46;;;;;;;2.38;0.70;;;;;;;27.54;30.32;99500.03;10525016;28;20093;-71
2021/05/09 12:35:49;;;;;;;1.65;1.02;;;;;;;27.60;29.33;99496.66;10542171;28;20040;-71
2021/05/09 12:41:04;;;;;;;1.58;0.95;;;;;;;26.41;30.30;99491.59;10542405;28;20394;-71
2021/05/09 12:46:05;;;;;;;1.03;0.80;;;;;;;26.64;30.63;99484.59;10541922;28;20036;-70
2021/05/09 12:51:14;;;;;;;2.78;1.27;;;;;;;26.96;30.97;99484.81;10541595;28;20082;-70
2021/05/09 12:56:24;;;;;;;2.80;0.95;;;;;;;27.15;29.88;99481.84;10523701;28;20032;-70
2021/05/09 13:01:25;;;;;;;1.90;1.00;;;;;;;27.12;29.63;99474.91;10507047;28;20448;-71
2021/05/09 13:06:26;;;;;;;1.08;0.98;;;;;;;27.63;29.41;99472.84;10539970;28;20113;-70
2021/05/09 13:11:28;;;;;;;1.73;1.02;;;;;;;27.83;29.26;99472.50;10539588;28;20057;-70
2021/05/09 13:16:29;;;;;;;1.50;1.40;;;;;;;27.37;29.73;99474.94;10539665;28;20577;-70
2021/05/09 13:21:30;;;;;;;1.02;0.88;;;;;;;27.16;29.79;99472.72;10540901;28;20032;-70
2021/05/09 13:26:32;;;;;;;1.63;0.90;;;;;;;26.90;30.14;99468.31;10540125;28;20051;-70
2021/05/09 13:31:33;;;;;;;3.40;1.05;;;;;;;26.61;31.51;99462.56;10522135;28;20467;-69
2021/05/09 13:36:35;;;;;;;0.95;0.90;;;;;;;26.91;30.97;99461.88;10539508;28;20083;-70
2021/05/09 13:41:37;;;;;;;2.72;0.95;;;;;;;27.12;31.79;99466.81;10540070;28;20081;-69
2021/05/09 13:46:38;;;;;;;1.95;1.08;;;;;;;26.98;30.36;99454.00;10540855;28;20036;-69
2021/05/09 13:51:40;;;;;;;2.58;1.10;;;;;;;26.77;30.82;99445.53;10541527;28;20382;-69
2021/05/09 13:56:44;;;;;;;2.22;0.95;;;;;;;26.42;31.32;99445.59;10548429;28;20050;-69
2021/05/09 14:01:46;;;;;;;1.90;0.90;;;;;;;26.58;31.64;99433.22;10548468;28;20086;-69
2021/05/09 14:06:47;;;;;;;2.42;0.95;;;;;;;26.63;31.79;99433.56;10546602;28;20040;-70
2021/05/09 14:11:55;;;;;;;2.63;0.93;;;;;;;26.45;31.28;99430.16;10548735;28;20059;-70
2021/05/09 14:16:57;;;;;;;1.10;1.00;;;;;;;26.56;31.48;99419.91;10530861;28;20040;-70
2021/05/09 14:21:59;;;;;;;0.80;0.80;;;;;;;26.65;31.31;99421.63;10546374;28;20040;-71
2021/05/09 14:27:01;;;;;;;1.95;0.88;;;;;;;26.67;31.66;99418.75;10528193;28;20114;-71
2021/05/09 14:32:02;;;;;;;2.67;1.10;;;;;;;26.55;32.81;99407.44;10545989;28;20081;-71
2021/05/09 14:37:06;;;;;;;2.47;1.20;;;;;;;26.30;33.01;99406.53;10527825;28;20040;-71
2021/05/09 14:42:08;;;;;;;2.15;1.20;;;;;;;26.39;31.78;99402.00;10545155;28;20040;-71
2021/05/09 14:47:10;;;;;;;2.25;1.08;;;;;;;26.42;32.79;99409.72;10546833;28;20055;-70
2021/05/09 14:52:12;;;;;;;2.30;1.00;;;;;;;26.42;31.23;99401.66;10545290;28;20044;-71
2021/05/09 14:57:13;;;;;;;2.53;1.10;;;;;;;26.41;32.20;99397.28;10545878;28;20490;-71
2021/05/09 15:02:15;;;;;;;4.35;1.50;;;;;;;26.19;32.06;99396.03;10529039;28;20161;-71
2021/05/09 15:07:17;;;;;;;1.17;1.08;;;;;;;26.14;31.95;99390.31;10544715;28;20459;-71
2021/05/09 15:12:18;;;;;;;1.92;0.90;;;;;;;26.06;32.76;99380.34;10545336;28;20067;-70
2021/05/09 15:17:19;;;;;;;2.15;0.90;;;;;;;26.11;33.09;99375.31;10527718;28;20074;-72
2021/05/09 15:22:21;;;;;;;1.17;0.90;;;;;;;26.04;33.70;99366.22;10545558;28;20047;-71
2021/05/09 15:27:23;;;;;;;2.28;1.17;;;;;;;25.99;34.55;99365.03;10544597;28;20040;-70
2021/05/09 15:32:24;;;;;;;1.85;1.30;;;;;;;26.31;33.22;99358.88;10544214;28;20547;-71
2021/05/09 15:37:27;;;;;;;2.60;1.67;;;;;;;26.41;32.83;99355.00;10544931;28;20040;-70
2021/05/09 15:42:29;;;;;;;3.58;1.27;;;;;;;26.56;32.80;99351.66;10544322;28;20115;-70
2021/05/09 15:47:56;;;;;;;2.55;1.00;;;;;;;27.16;31.64;99357.56;10525018;28;20071;-71
2021/05/09 15:53:00;;;;;;;1.83;1.15;;;;;;;27.66;30.88;99350.16;10542071;28;20048;-71
2021/05/09 15:58:01;;;;;;;2.00;0.85;;;;;;;27.33;31.20;99344.88;10524598;28;20040;-70
2021/05/09 16:03:03;;;;;;;2.90;0.60;;;;;;;26.85;31.57;99357.41;10538743;28;20048;-71
2021/05/09 16:08:04;;;;;;;2.17;0.90;;;;;;;26.40;32.01;99345.25;10523488;28;20044;-70
2021/05/09 16:13:05;;;;;;;1.45;0.90;;;;;;;26.13;32.74;99330.22;10541317;28;20115;-71
2021/05/09 16:18:07;;;;;;;1.50;1.40;;;;;;;25.80;33.14;99328.44;10540465;28;20043;-70
2021/05/09 16:23:09;;;;;;;2.28;1.02;;;;;;;25.68;33.47;99322.50;10541212;28;20044;-73
2021/05/09 16:28:12;;;;;;;1.33;0.60;;;;;;;25.60;32.39;99314.38;10505219;28;20070;-71
2021/05/09 16:33:13;;;;;;;2.13;1.23;;;;;;;25.71;32.27;99318.63;10542153;28;20552;-70
2021/05/09 16:38:14;;;;;;;1.35;0.70;;;;;;;25.55;33.14;99314.88;10540559;28;20067;-70
2021/05/09 16:43:16;;;;;;;2.28;1.00;;;;;;;25.48;32.78;99316.50;10539612;28;20094;-69
2021/05/09 16:48:17;;;;;;;0.93;0.80;;;;;;;25.42;32.62;99307.25;10519765;28;590428;-72
2021/05/09 16:53:23;;;;;;;1.20;1.00;;;;;;;25.20;32.77;99305.13;10540954;28;20048;-72
2021/05/09 16:58:24;;;;;;;2.25;0.82;;;;;;;25.05;33.48;99299.44;10543958;28;20062;-73
2021/05/09 17:03:26;;;;;;;1.60;1.05;;;;;;;24.70;32.84;99304.94;10524159;28;20043;-72
2021/05/09 17:08:28;;;;;;;2.13;0.60;;;;;;;24.77;33.02;99304.16;10542796;28;20094;-74
2021/05/09 17:13:30;;;;;;;1.15;1.00;;;;;;;24.42;33.93;99297.81;10543256;28;20051;-73
2021/05/09 17:18:33;;;;;;;2.25;1.20;;;;;;;24.35;34.01;99295.91;10540958;28;20076;-72
2021/05/09 17:23:34;;;;;;;1.13;1.00;;;;;;;24.11;34.11;99297.34;10542266;28;20044;-74
2021/05/09 17:28:35;;;;;;;1.10;0.60;;;;;;;24.10;33.74;99282.25;10540080;28;20043;-73
2021/05/09 17:33:37;;;;;;;1.35;0.80;;;;;;;23.64;34.29;99278.75;10523893;28;20101;-71
2021/05/09 17:38:38;;;;;;;1.00;0.80;;;;;;;23.62;34.13;99267.28;10541644;28;20044;-71
2021/05/09 17:43:40;;;;;;;1.70;0.85;;;;;;;23.50;34.57;99255.06;10523277;28;20044;-72
2021/05/09 17:48:42;;;;;;;1.38;1.00;;;;;;;23.69;33.59;99251.47;10541675;28;20047;-72
2021/05/09 17:53:44;;;;;;;1.10;1.00;;;;;;;23.32;34.61;99246.16;10523197;28;20044;-71
2021/05/09 17:58:47;;;;;;;0.60;0.57;;;;;;;23.18;33.92;99244.81;10540569;28;20412;-71
2021/05/09 18:03:48;;;;;;;1.55;0.80;;;;;;;23.60;32.26;99250.50;10522526;28;20131;-71
2021/05/09 18:08:53;;;;;;;0.90;0.70;;;;;;;23.50;33.08;99247.03;10541037;28;20571;-72
2021/05/09 18:13:57;;;;;;;1.83;1.00;;;;;;;23.47;33.28;99247.34;10542098;28;20041;-73
2021/05/09 18:24:15;;;;;;;0.80;0.70;;;;;;;23.06;35.95;99275.47;10541724;28;20051;-72
2021/05/09 18:29:16;;;;;;;1.67;0.82;;;;;;;22.98;35.57;99261.97;10541344;28;20474;-72
2021/05/09 18:34:18;;;;;;;1.60;0.82;;;;;;;22.83;36.79;99275.78;10522876;28;20044;-73
2021/05/09 18:39:19;;;;;;;1.20;0.88;;;;;;;22.81;36.98;99276.94;10542156;28;20048;-73
2021/05/09 18:44:21;;;;;;;1.98;0.85;;;;;;;22.40;38.07;99282.53;10547793;28;20032;-73
2021/05/09 18:49:23;;;;;;;1.95;1.10;;;;;;;22.16;38.58;99288.28;10548000;28;20040;-73
2021/05/09 18:54:24;;;;;;;1.17;1.00;;;;;;;22.19;38.18;99300.56;10547677;28;20063;-71
2021/05/09 18:59:28;;;;;;;1.80;1.10;;;;;;;22.10;38.60;99304.88;10546417;28;20497;-73
2021/05/09 19:04:30;;;;;;;2.95;1.00;;;;;;;21.91;39.45;99294.13;10547729;28;20150;-73
2021/05/09 19:09:31;;;;;;;0.93;0.82;;;;;;;21.91;38.99;99300.38;10530236;28;20036;-73
2021/05/09 19:14:32;;;;;;;1.48;0.77;;;;;;;21.84;38.30;99306.41;10529569;28;20141;-72
2021/05/09 19:19:34;;;;;;;1.27;0.85;;;;;;;21.80;37.98;99307.66;10529178;28;20059;-72
2021/05/09 19:24:36;;;;;;;1.83;1.15;;;;;;;21.65;38.47;99313.41;10546933;28;20068;-72
2021/05/09 19:29:38;;;;;;;1.50;1.10;;;;;;;21.65;38.35;99315.25;10547424;28;20040;-72
2021/05/09 19:34:39;;;;;;;3.03;1.05;;;;;;;21.42;39.04;99314.56;10546368;28;20032;-74
2021/05/09 19:39:40;;;;;;;1.48;1.10;;;;;;;21.13;39.75;99315.28;10528646;28;20095;-72
2021/05/09 19:44:42;;;;;;;1.60;1.35;;;;;;;21.09;40.06;99305.00;10546274;28;20465;-72
2021/05/09 19:49:43;;;;;;;3.38;1.45;;;;;;;20.99;40.21;99318.31;10545625;28;20046;-73
2021/05/09 19:54:44;;;;;;;2.47;1.20;;;;;;;20.87;41.01;99314.84;10545978;28;20048;-73
2021/05/09 19:59:45;;;;;;;1.30;1.20;;;;;;;20.75;41.16;99321.25;10527886;28;20048;-72
2021/05/09 20:04:47;;;;;;;1.27;0.90;;;;;;;20.71;40.96;99325.16;10544571;28;20062;-72
2021/05/09 20:09:48;;;;;;;4.65;1.27;;;;;;;20.42;42.53;99330.25;10527519;28;20048;-73
2021/05/09 20:14:49;;;;;;;3.00;0.98;;;;;;;20.47;41.69;99332.53;10545814;28;20048;-72
2021/05/09 20:19:51;;;;;;;1.55;1.15;;;;;;;20.29;42.48;99327.75;10527308;28;20063;-71
2021/05/09 20:24:53;;;;;;;2.85;1.40;;;;;;;20.09;42.81;99333.88;10544408;28;20108;-73
2021/05/09 20:29:54;;;;;;;2.78;1.40;;;;;;;20.07;42.90;99335.84;10544935;28;20066;-72
2021/05/09 20:34:56;;;;;;;3.50;1.50;;;;;;;20.04;43.11;99331.59;10544103;28;20044;-73
2021/05/09 20:39:57;;;;;;;2.80;1.45;;;;;;;20.07;42.55;99344.69;10543278;28;20089;-71
2021/05/09 20:44:58;;;;;;;2.35;1.30;;;;;;;19.85;43.22;99336.75;10523588;28;20040;-71
2021/05/09 20:50:00;;;;;;;2.97;1.27;;;;;;;19.76;43.37;99332.16;10541530;28;20044;-71
2021/05/09 20:55:01;;;;;;;1.50;1.02;;;;;;;19.49;44.08;99333.38;10523427;28;20040;-72
2021/05/09 21:00:04;;;;;;;1.20;0.70;;;;;;;19.61;43.10;99324.44;10541481;28;20442;-72
2021/05/09 21:05:06;;;;;;;4.22;1.27;;;;;;;19.47;43.07;99327.31;10540225;28;20405;-71
2021/05/09 21:10:08;;;;;;;2.20;0.80;;;;;;;19.38;43.36;99320.06;10541779;28;20046;-72
2021/05/09 21:15:10;;;;;;;1.38;0.80;;;;;;;19.31;43.05;99319.72;10540936;28;20490;-72
2021/05/09 21:20:12;;;;;;;1.58;0.80;;;;;;;19.26;42.95;99313.06;10540808;28;20057;-72
2021/05/09 21:25:13;;;;;;;3.80;0.80;;;;;;;19.17;42.86;99317.28;10538786;28;20060;-71
2021/05/09 21:30:16;;;;;;;1.00;0.80;;;;;;;18.96;43.29;99311.81;10536872;28;20048;-71
2021/05/09 21:35:17;;;;;;;3.25;0.80;;;;;;;18.98;42.70;99319.69;10539955;28;20097;-72
2021/05/09 21:40:21;;;;;;;1.55;0.70;;;;;;;18.90;42.75;99314.94;10539754;28;20052;-71
2021/05/09 21:45:23;;;;;;;4.72;0.82;;;;;;;18.74;43.55;99306.47;10539849;28;20090;-72
2021/05/09 21:50:24;;;;;;;2.90;0.80;;;;;;;18.51;43.80;99305.53;10521511;28;20404;-70
2021/05/09 21:55:25;;;;;;;2.75;0.65;;;;;;;18.39;43.90;99302.81;10521242;28;20048;-70
2021/05/09 22:00:26;;;;;;;2.63;0.80;;;;;;;17.97;44.88;99309.53;10539725;28;20105;-71
2021/05/09 22:05:28;;;;;;;3.10;0.80;;;;;;;17.89;45.33;99301.28;10538964;28;20075;-73
2021/05/09 22:10:30;;;;;;;2.53;0.98;;;;;;;17.80;45.03;99294.84;10539255;28;20097;-72
2021/05/09 22:15:32;;;;;;;1.80;0.80;;;;;;;17.71;45.09;99295.47;10525085;28;20047;-70
2021/05/09 22:20:34;;;;;;;3.58;1.08;;;;;;;17.62;45.47;99296.16;10548026;28;20044;-71
2021/05/09 22:25:35;;;;;;;1.15;0.80;;;;;;;17.48;45.35;99294.47;10546520;28;20044;-71
2021/05/09 22:30:36;;;;;;;2.60;0.90;;;;;;;17.39;46.10;99292.47;10547040;28;20044;-70
2021/05/09 22:35:38;;;;;;;1.63;0.90;;;;;;;17.40;45.64;99286.22;10548191;28;20453;-71
2021/05/09 22:40:39;;;;;;;1.08;0.88;;;;;;;17.32;45.67;99278.78;10528220;28;20068;-71
2021/05/09 22:45:40;;;;;;;3.15;0.65;;;;;;;17.30;45.71;99282.50;10546193;28;20040;-71
2021/05/09 22:50:42;;;;;;;1.13;0.80;;;;;;;17.12;46.09;99277.53;10545745;28;20036;-71
2021/05/09 22:55:43;;;;;;;1.13;0.88;;;;;;;17.20;45.62;99271.69;10544901;28;20090;-70
2021/05/09 23:00:45;;;;;;;1.60;0.90;;;;;;;17.05;45.64;99268.31;10545418;28;20055;-71
2021/05/09 23:05:46;;;;;;;1.45;0.88;;;;;;;16.89;46.35;99254.44;10545493;28;20521;-71
2021/05/09 23:10:47;;;;;;;2.30;0.75;;;;;;;16.83;46.23;99262.84;10545586;28;20040;-71
2021/05/09 23:15:49;;;;;;;1.98;0.95;;;;;;;16.90;45.81;99256.13;10545049;28;20486;-71
2021/05/09 23:26:11;;;;;;;1.85;0.70;;;;;;;16.73;45.98;99244.00;10543765;28;20036;-70
2021/05/09 23:31:12;;;;;;;2.65;0.70;;;;;;;16.80;45.21;99239.16;10546150;28;20040;-71
2021/05/09 23:36:14;;;;;;;1.60;0.95;;;;;;;16.83;45.19;99237.13;10525797;28;20044;-70
2021/05/09 23:41:15;;;;;;;2.00;0.82;;;;;;;16.71;45.81;99235.28;10544027;28;20115;-70
2021/05/09 23:46:17;;;;;;;3.72;0.90;;;;;;;16.87;44.92;99235.97;10543714;28;20051;-70